Latest Weather Observations for Mount William

IDV60801

Issued at 10:42 pm EST Monday 6 July 2020 (issued every 10 minutes, with the page automatically refreshed every 10 minutes)

About weather observations | Map of weather stations | Latest weather observations for VIC | Other Formats
Station Details ID: 079103 Name: MOUNT WILLIAM Lat: -37.30 Lon: 142.60 Height: 1150.0 m
Data from the previous 72 hours. | See also: Recent months at Mount William
Date/Time
EST
Temp
°C
App
Temp
°C
Dew
Point
°C
Rel
Hum
%
Delta-T
°C
Wind Press
QNH
hPa
Press
MSL
hPa
Rain since
9am
mm
Dir  Spd
km/h
Gust
km/h
Spd
kts
Gust
kts
06/10:30pm 2.9 -1.5 2.9 100 0.0 WSW 15 19 8 10 - - 0.0
06/10:00pm 2.9 -1.8 2.9 100 0.0 WSW 17 22 9 12 - - 0.0
06/09:30pm 3.2 -2.4 3.2 100 0.0 SW 22 28 12 15 - - 0.0
06/09:00pm 3.4 -1.8 3.4 100 0.0 SW 20 26 11 14 - - 0.0
06/08:30pm 3.4 -1.8 3.4 100 0.0 SW 20 30 11 16 - - 0.0
06/08:00pm 3.4 -2.2 3.4 100 0.0 WSW 22 30 12 16 - - 0.0
06/07:30pm 3.3 -1.9 3.3 100 0.0 SW 20 33 11 18 - - 0.0
06/07:00pm 3.3 -3.1 3.3 100 0.0 SW 26 33 14 18 - - 0.0
06/06:30pm 3.0 -3.1 3.0 100 0.0 SSW 24 32 13 17 - - 0.0
06/06:00pm 3.1 -3.3 3.1 100 0.0 SW 26 41 14 22 - - 0.0
06/05:30pm 3.2 -2.8 3.2 100 0.0 WSW 24 32 13 17 - - 0.0
06/05:00pm 3.2 -3.2 3.2 100 0.0 SW 26 41 14 22 - - 0.0
06/04:30pm 3.0 -2.1 3.0 100 0.0 SW 19 26 10 14 - - 0.0
06/04:00pm 2.9 -2.2 2.9 100 0.0 SW 19 33 10 18 - - 0.0
06/03:30pm 3.1 -2.0 3.1 100 0.0 SW 19 28 10 15 - - 0.0
06/03:00pm 3.3 -0.6 3.3 100 0.0 WSW 13 20 7 11 - - 0.0
06/02:30pm 3.5 -1.1 3.5 100 0.0 WSW 17 24 9 13 - - 0.0
06/02:00pm 3.7 -0.5 3.7 100 0.0 WSW 15 22 8 12 - - 0.0
06/01:30pm 3.7 -0.5 3.7 100 0.0 WSW 15 22 8 12 - - 0.0
06/01:00pm 3.8 -0.4 3.8 100 0.0 WSW 15 24 8 13 - - 0.0
06/12:30pm 3.7 0.2 3.7 100 0.0 SW 11 20 6 11 - - 0.0
06/12:00pm 3.6 -1.0 3.6 100 0.0 WSW 17 26 9 14 - - 0.0
06/11:30am 3.3 -0.2 3.3 100 0.0 WSW 11 24 6 13 - - 0.0
06/11:00am 2.8 -2.0 2.8 100 0.0 SW 17 32 9 17 - - 0.0
06/10:30am 2.8 -2.0 2.8 100 0.0 SW 17 26 9 14 - - 0.0
06/10:00am 2.9 -2.4 2.9 100 0.0 SW 20 41 11 22 - - 0.0
06/09:30am 2.9 -2.2 2.9 100 0.0 WSW 19 33 10 18 - - 0.0
06/09:00am 2.6 -2.8 2.6 100 0.0 SSW 20 35 11 19 - - 0.4
06/08:30am 2.2 -4.0 2.2 100 0.0 SSW 24 37 13 20 - - 0.4
06/08:00am 1.9 -4.3 1.9 100 0.0 SSW 24 35 13 19 - - 0.4
06/07:30am 1.9 -4.3 1.9 100 0.0 SSW 24 32 13 17 - - 0.4
06/07:00am 2.1 -5.3 2.1 100 0.0 SSW 30 43 16 23 - - 0.4
06/06:30am 2.2 -4.8 2.2 100 0.0 SW 28 43 15 23 - - 0.4
06/06:00am 2.3 -4.3 2.3 100 0.0 SSW 26 35 14 19 - - 0.4
06/05:30am 2.4 -5.3 2.4 100 0.0 SSW 32 44 17 24 - - 0.4
06/05:00am 2.3 -5.6 2.3 100 0.0 SSW 33 43 18 23 - - 0.2
06/04:30am 2.7 -5.5 2.7 100 0.0 SSW 35 43 19 23 - - 0.2
06/04:00am 2.9 -4.9 2.9 100 0.0 SSW 33 44 18 24 - - 0.2
06/03:30am 2.9 -4.9 2.9 100 0.0 SSW 33 46 18 25 - - 0.2
06/03:00am 2.5 -6.1 2.5 100 0.0 SSW 37 54 20 29 - - 0.2
06/02:30am 2.5 -6.1 2.5 100 0.0 SSW 37 50 20 27 - - 0.2
06/02:14am 2.5 -5.7 2.5 100 0.0 SSW 35 54 19 29 - - 0.2
06/02:00am 2.3 -6.7 2.3 100 0.0 SSW 39 52 21 28 - - 0.2
06/01:30am 2.3 -6.4 2.3 100 0.0 SSW 37 52 20 28 - - 0.2
06/01:00am 2.1 -7.7 2.1 100 0.0 SSW 43 59 23 32 - - 0.2
06/12:30am 2.0 -6.3 2.0 100 0.0 S 35 44 19 24 - - 0.2
06/12:00am 1.6 -7.9 1.6 100 0.0 S 41 50 22 27 - - 0.2
 
Date/Time
EST
Temp
°C
App
Temp
°C
Dew
Point
°C
Rel
Hum
%
Delta-T
°C
Wind Press
QNH
hPa
Press
MSL
hPa
Rain since
9am
mm
Dir  Spd
km/h
Gust
km/h
Spd
kts
Gust
kts
05/11:30pm 1.2 -8.4 1.2 100 0.0 S 41 50 22 27 - - 0.2
05/11:01pm 1.0 -5.8 1.0 100 0.0 SSW 26 50 14 27 - - 0.2
05/11:00pm 1.0 -5.4 1.0 100 0.0 SSW 24 46 13 25 - - 0.2
05/10:30pm 1.0 -4.1 1.0 100 0.0 SW 17 33 9 18 - - 0.2
05/10:00pm 1.2 -6.7 1.2 100 0.0 WSW 32 41 17 22 - - 0.2
05/09:30pm 1.4 -4.9 1.4 100 0.0 WSW 24 32 13 17 - - 0.2
05/09:00pm 1.5 -6.5 1.5 100 0.0 WSW 33 43 18 23 - - 0.2
05/08:30pm 1.5 -6.0 1.5 100 0.0 WSW 30 37 16 20 - - 0.0
05/08:00pm 2.0 -3.3 2.0 100 0.0 SW 19 26 10 14 - - 0.0
05/07:30pm 2.0 -5.4 2.0 100 0.0 WSW 30 41 16 22 - - 0.0
05/07:00pm 2.2 -4.0 2.2 100 0.0 WSW 24 32 13 17 - - 0.0
05/06:30pm 2.5 -3.6 2.5 100 0.0 SW 24 32 13 17 - - 0.0
05/06:00pm 2.8 -4.1 2.8 100 0.0 SW 28 37 15 20 - - 0.0
05/05:30pm 2.7 -3.0 2.7 100 0.0 SW 22 30 12 16 - - 0.0
05/05:00pm 3.2 -2.8 3.2 100 0.0 SW 24 35 13 19 - - 0.0
05/04:30pm 3.3 -2.3 3.3 100 0.0 SW 22 33 12 18 - - 0.0
05/04:00pm 3.3 -2.7 3.3 100 0.0 SW 24 33 13 18 - - 0.0
05/03:30pm 3.9 -1.0 3.9 100 0.0 SW 19 28 10 15 - - 0.0
05/03:00pm 3.8 -0.4 3.8 100 0.0 SW 15 28 8 15 - - 0.0
05/02:30pm 4.2 -0.3 4.2 100 0.0 SW 17 26 9 14 - - 0.0
05/02:00pm 4.4 0.7 4.4 100 0.0 WSW 13 20 7 11 - - 0.0
05/01:30pm 4.1 0.7 4.1 100 0.0 WSW 11 20 6 11 - - 0.0
05/01:00pm 3.8 -0.4 3.8 100 0.0 SW 15 30 8 16 - - 0.0
05/12:30pm 3.8 -0.8 3.8 100 0.0 WSW 17 32 9 17 - - 0.0
05/12:00pm 3.9 0.1 3.9 100 0.0 SW 13 28 7 15 - - 0.0
05/11:30am 3.2 -3.2 3.2 100 0.0 SW 26 41 14 22 - - 0.0
05/11:00am 2.9 -2.8 2.9 100 0.0 SSW 22 32 12 17 - - 0.0
05/10:30am 2.6 -3.9 2.6 100 0.0 SW 26 37 14 20 - - 0.0
05/10:00am 1.9 -5.5 1.9 100 0.0 SW 30 41 16 22 - - 0.0
05/09:30am 2.0 -5.9 2.0 100 0.0 SW 33 43 18 23 - - 0.0
05/09:12am 1.8 -6.0 1.8 100 0.0 SW 32 50 17 27 - - 0.0
05/09:00am 1.5 -6.5 1.5 100 0.0 SW 33 50 18 27 - - 4.4
05/08:30am 1.5 -6.0 1.5 100 0.0 SW 30 43 16 23 - - 4.4
05/08:00am 1.7 -4.2 1.7 100 0.0 WSW 22 33 12 18 - - 4.4
05/07:30am 1.6 -4.7 1.6 100 0.0 WSW 24 39 13 21 - - 4.4
05/07:00am 1.9 -3.6 1.9 100 0.0 WSW 20 30 11 16 - - 4.4
05/06:30am 2.2 -4.0 2.2 100 0.0 WSW 24 37 13 20 - - 4.2
05/06:00am 2.3 -4.3 2.3 100 0.0 WSW 26 39 14 21 - - 4.0
05/05:30am 2.3 -4.6 2.3 100 0.0 WSW 28 46 15 25 - - 3.8
05/05:26am 2.2 -4.8 2.2 100 0.0 WSW 28 46 15 25 - - 3.8
05/05:00am 2.2 -5.1 2.2 100 0.0 WSW 30 46 16 25 - - 3.6
05/04:30am 1.9 -6.8 1.9 100 0.0 WSW 37 52 20 28 - - 3.6
05/04:00am 1.9 -8.0 1.9 100 0.0 WSW 43 56 23 30 - - 3.6
05/03:30am 1.8 -8.3 1.8 100 0.0 WSW 44 56 24 30 - - 3.6
05/03:00am 2.1 -7.3 2.1 100 0.0 WSW 41 57 22 31 - - 3.6
05/02:53am 2.1 -7.0 2.1 100 0.0 WSW 39 57 21 31 - - 3.6
05/02:30am 2.4 -4.5 2.4 100 0.0 WSW 28 39 15 21 - - 3.6
05/02:00am 2.8 -2.9 2.8 100 0.0 WSW 22 33 12 18 - - 3.4
05/01:30am 3.1 -4.1 3.1 100 0.0 WSW 30 50 16 27 - - 3.2
05/01:29am 3.1 -4.1 3.1 100 0.0 WSW 30 50 16 27 - - 3.2
05/01:00am 3.2 -2.8 3.2 100 0.0 WSW 24 39 13 21 - - 3.2
05/12:30am 3.4 -3.7 3.4 100 0.0 WSW 30 43 16 23 - - 3.0
05/12:00am 3.4 -3.3 3.4 100 0.0 WSW 28 39 15 21 - - 2.8
 
Date/Time
EST
Temp
°C
App
Temp
°C
Dew
Point
°C
Rel
Hum
%
Delta-T
°C
Wind Press
QNH
hPa
Press
MSL
hPa
Rain since
9am
mm
Dir  Spd
km/h
Gust
km/h
Spd
kts
Gust
kts
04/11:30pm 3.4 -2.2 3.4 100 0.0 WSW 22 35 12 19 - - 2.8
04/11:00pm 3.3 -2.7 3.3 100 0.0 WSW 24 39 13 21 - - 2.6
04/10:30pm 3.3 -2.3 3.3 100 0.0 WSW 22 39 12 21 - - 2.6
04/10:00pm 3.5 -4.0 3.5 100 0.0 SW 32 43 17 23 - - 2.6
04/09:30pm 3.2 -4.9 3.2 100 0.0 WSW 35 50 19 27 - - 2.6
04/09:00pm 3.1 -4.1 3.1 100 0.0 SW 30 43 16 23 - - 2.6
04/08:57pm 3.0 -4.6 3.0 100 0.0 SW 32 52 17 28 - - 2.6
04/08:30pm 3.2 -4.5 3.2 100 0.0 SW 33 48 18 26 - - 2.6
04/08:00pm 3.5 -5.3 3.5 100 0.0 SW 39 54 21 29 - - 2.6
04/07:30pm 3.5 -5.7 3.5 100 0.0 SW 41 54 22 29 - - 2.6
04/07:00pm 3.8 -5.3 3.8 100 0.0 SW 41 56 22 30 - - 2.6
04/06:34pm 4.0 -5.1 4.0 100 0.0 SW 41 61 22 33 - - 2.6
04/06:30pm 4.0 -5.1 4.0 100 0.0 SW 41 52 22 28 - - 2.6
04/06:14pm 4.3 -3.0 4.3 100 0.0 SW 32 52 17 28 - - 2.6
04/06:00pm 4.3 -4.0 4.3 100 0.0 SW 37 52 20 28 - - 2.6
04/05:30pm 4.5 -2.0 4.5 100 0.0 SW 28 50 15 27 - - 2.6
04/05:06pm 4.5 -2.4 4.5 100 0.0 SW 30 50 16 27 - - 2.2
04/05:00pm 4.4 -2.9 4.4 100 0.0 WSW 32 50 17 27 - - 2.2
04/04:31pm 4.4 -2.9 4.4 100 0.0 WSW 32 56 17 30 - - 2.2
04/04:30pm 4.3 -3.0 4.3 100 0.0 WSW 32 46 17 25 - - 2.2
04/04:01pm 4.2 -3.3 4.2 100 0.0 WSW 33 54 18 29 - - 2.2
04/04:00pm 4.2 -3.7 4.2 100 0.0 WSW 35 54 19 29 - - 2.2
04/03:42pm 4.1 -3.5 4.1 100 0.0 WSW 33 52 18 28 - - 2.2
04/03:30pm 4.0 -3.6 4.0 100 0.0 WSW 33 50 18 27 - - 2.2
04/03:13pm 3.8 -3.8 3.8 100 0.0 SW 33 54 18 29 - - 2.2
04/03:00pm 4.0 -3.6 4.0 100 0.0 WSW 33 50 18 27 - - 2.2
04/02:30pm 4.2 -3.3 4.2 100 0.0 W 33 52 18 28 - - 2.0
04/02:11pm 4.1 -2.5 4.1 100 0.0 W 28 54 15 29 - - 2.0
04/02:00pm 4.0 -2.3 4.0 100 0.0 WSW 26 50 14 27 - - 2.0
04/01:48pm 4.1 -2.5 4.1 100 0.0 WSW 28 46 15 25 - - 2.0
04/01:30pm 4.1 -2.1 4.1 100 0.0 WSW 26 44 14 24 - - 2.0
04/01:17pm 4.0 -2.6 4.0 100 0.0 WSW 28 57 15 31 - - 2.0
04/01:00pm 4.3 -0.8 4.3 100 0.0 W 20 48 11 26 - - 2.0
04/12:30pm 4.4 -1.0 4.4 100 0.0 W 22 35 12 19 - - 1.8
04/12:00pm 4.2 -0.9 4.2 100 0.0 W 20 41 11 22 - - 1.4
04/11:30am 3.8 -1.4 3.8 100 0.0 W 20 35 11 19 - - 1.0
04/11:13am 3.6 -3.1 3.6 100 0.0 WSW 28 48 15 26 - - 1.0
04/11:00am 3.5 -2.5 3.5 100 0.0 WSW 24 44 13 24 - - 1.0
04/10:30am 3.5 -2.5 3.5 100 0.0 WSW 24 43 13 23 - - 0.8
04/10:00am 3.5 -2.8 3.5 100 0.0 WSW 26 37 14 20 - - 0.6
04/09:30am 3.4 -3.0 3.4 100 0.0 W 26 44 14 24 - - 0.4
04/09:00am 3.0 -4.2 3.0 100 0.0 W 30 54 16 29 - - 11.2
04/08:30am 2.8 -5.0 2.8 100 0.0 WSW 33 56 18 30 - - 11.0
04/08:01am 2.6 -5.2 2.6 100 0.0 WSW 33 54 18 29 - - 10.8
04/08:00am 2.6 -5.2 2.6 100 0.0 WSW 33 50 18 27 - - 10.8
04/07:36am 2.5 -5.7 2.5 100 0.0 WSW 35 54 19 29 - - 10.4
04/07:30am 2.5 -5.4 2.5 100 0.0 WSW 33 50 18 27 - - 10.4
04/07:08am 2.4 -4.5 2.4 100 0.0 WSW 28 48 15 26 - - 10.0
04/07:00am 2.5 -4.0 2.5 100 0.0 WSW 26 46 14 25 - - 10.0
04/06:30am 2.3 -6.4 2.3 100 0.0 SW 37 57 20 31 - - 9.6
04/06:00am 2.1 -6.2 2.1 100 0.0 SW 35 56 19 30 - - 9.4
04/05:33am 2.0 -6.7 2.0 100 0.0 SW 37 57 20 31 - - 9.4
04/05:30am 1.9 -7.2 1.9 100 0.0 SW 39 57 21 31 - - 9.2
04/05:00am 1.6 -7.2 1.6 100 0.0 SW 37 54 20 29 - - 9.0
04/04:31am 1.5 -7.7 1.5 100 0.0 SW 39 59 21 32 - - 8.8
04/04:30am 1.5 -8.0 1.5 100 0.0 WSW 41 59 22 32 - - 8.8
04/04:00am 1.2 -8.4 1.2 100 0.0 SW 41 61 22 33 - - 8.8
04/03:30am 0.9 -8.4 0.9 100 0.0 WSW 39 61 21 33 - - 7.6
04/03:00am 0.5 -8.4 0.5 100 0.0 WSW 37 57 20 31 - - 7.6
04/02:30am 0.1 -9.3 0.1 100 0.0 WSW 39 57 21 31 - - 7.6
04/02:02am 0.0 -8.1 0.0 100 0.0 WSW 32 54 17 29 - - 7.6
04/02:00am 0.0 -8.1 0.0 100 0.0 WSW 32 44 17 24 - - 7.6
04/01:37am -0.1 -8.4 -0.1 100 0.0 WSW 33 54 18 29 - - 7.6
04/01:30am -0.2 -8.9 -0.2 100 0.0 WSW 35 54 19 29 - - 7.6
04/01:16am -0.2 -9.2 -0.2 100 0.0 WSW 37 57 20 31 - - 7.6
04/01:00am -0.3 -9.4 -0.3 100 0.0 WSW 37 56 20 30 - - 7.6
04/12:37am -0.6 -8.9 -0.6 100 0.0 WSW 33 54 18 29 - - 7.6
04/12:30am -0.6 -8.9 -0.6 100 0.0 WSW 33 52 18 28 - - 7.6
04/12:00am -1.0 -9.4 -1.0 100 0.0 SW 33 54 18 29 - - 7.6
 
Date/Time
EST
Temp
°C
App
Temp
°C
Dew
Point
°C
Rel
Hum
%
Delta-T
°C
Wind Press
QNH
hPa
Press
MSL
hPa
Rain since
9am
mm
Dir  Spd
km/h
Gust
km/h
Spd
kts
Gust
kts
03/11:30pm -0.9 -10.0 -0.9 100 0.0 SW 37 65 20 35 - - 7.6
03/11:00pm -0.3 -8.4 -0.3 100 0.0 WSW 32 52 17 28 - - 7.6

Other formats

Comma delimited format used in spreadsheet applications
http://www.bom.gov.au/fwo/IDV60801/IDV60801.94833.axf

JavaScript Object Notation format (JSON) in row-major order
http://www.bom.gov.au/fwo/IDV60801/IDV60801.94833.json

Data quality

Most of these data are generated automatically and are frequently updated. Quality checks on data are not normally performed. It is possible for incorrect values to appear. Refer to information at About Latest Weather Observations and please check the disclaimer before using these data.